createdAt,value
2023-05-08T00:00:38.932Z,84.83
2023-05-08T00:03:07.313Z,83.31
2023-05-08T00:05:35.283Z,81.26
2023-05-08T00:08:03.070Z,83.67
2023-05-08T00:10:31.186Z,86.38
2023-05-08T00:12:59.455Z,86.43
2023-05-08T00:15:27.282Z,81.43
2023-05-08T00:17:55.440Z,86.12
2023-05-08T00:20:23.550Z,89.74
2023-05-08T00:22:54.282Z,89.31
2023-05-08T00:25:22.473Z,89.92
2023-05-08T00:27:54.833Z,89.97
2023-05-08T00:30:25.279Z,87.50
2023-05-08T00:32:55.818Z,88.20
2023-05-08T00:35:28.179Z,87.86
2023-05-08T00:37:55.976Z,89.50
2023-05-08T00:40:31.639Z,87.93
2023-05-08T00:43:02.188Z,86.04
2023-05-08T00:45:52.251Z,87.93
2023-05-08T00:48:20.979Z,89.69
2023-05-08T00:50:55.011Z,91.03
2023-05-08T00:53:26.321Z,88.83
2023-05-08T00:56:07.881Z,91.10
2023-05-08T00:59:10.614Z,91.65
2023-05-08T01:01:38.790Z,88.08
2023-05-08T01:04:06.893Z,88.87
2023-05-08T01:06:54.878Z,90.46
2023-05-08T01:09:23.006Z,88.14
2023-05-08T01:11:50.749Z,90.24
2023-05-08T01:14:36.655Z,89.95
2023-05-08T01:20:36.661Z,87.01
2023-05-08T01:23:09.031Z,91.44
2023-05-08T01:26:08.804Z,91.82
2023-05-08T01:28:36.853Z,88.29
2023-05-08T01:31:11.730Z,92.18
2023-05-08T01:33:50.670Z,93.84
2023-05-08T01:36:38.660Z,93.79
2023-05-08T01:39:15.875Z,91.66
2023-05-08T01:42:06.408Z,90.61
2023-05-08T01:44:35.895Z,93.09
2023-05-08T01:47:06.920Z,91.66
2023-05-08T01:49:43.992Z,94.21
2023-05-08T01:52:43.894Z,93.28
2023-05-08T01:55:13.195Z,94.79
2023-05-08T01:57:42.876Z,94.57
2023-05-08T02:00:11.080Z,95.85
2023-05-08T02:02:38.759Z,93.46
2023-05-08T02:05:21.562Z,88.34
2023-05-08T02:07:55.657Z,90.25
2023-05-08T02:13:33.322Z,95.08
2023-05-08T02:16:02.551Z,94.48
2023-05-08T02:18:31.281Z,93.44
2023-05-08T02:20:59.366Z,94.85
2023-05-08T02:23:32.964Z,95.39
2023-05-08T02:26:03.792Z,93.98
2023-05-08T02:28:35.421Z,92.92
2023-05-08T02:31:09.351Z,94.49
2023-05-08T02:33:54.671Z,89.26
2023-05-08T02:36:22.740Z,93.16
2023-05-08T02:42:09.322Z,95.15
2023-05-08T02:44:37.570Z,90.23
2023-05-08T02:47:35.689Z,86.57
2023-05-08T02:50:14.424Z,93.15
2023-05-08T02:52:50.018Z,91.97
2023-05-08T02:55:22.667Z,90.95
2023-05-08T02:57:50.440Z,86.48
2023-05-08T03:00:20.483Z,94.32
2023-05-08T03:02:53.640Z,93.21
2023-05-08T03:05:29.428Z,94.23
2023-05-08T03:07:58.232Z,96.75
2023-05-08T03:10:28.967Z,93.22
2023-05-08T03:12:56.852Z,95.82
2023-05-08T03:15:36.893Z,95.35
2023-05-08T03:18:11.597Z,90.70
2023-05-08T03:20:40.668Z,86.61
2023-05-08T03:23:11.432Z,86.43
2023-05-08T03:25:47.992Z,89.82
2023-05-08T03:28:16.572Z,92.03
2023-05-08T03:30:47.374Z,93.69
2023-05-08T03:33:15.584Z,95.90
2023-05-08T03:35:43.666Z,97.31
2023-05-08T03:38:11.601Z,94.19
2023-05-08T03:40:39.564Z,96.89
2023-05-08T03:43:16.538Z,95.26
2023-05-08T03:45:44.900Z,86.27
2023-05-08T03:48:13.518Z,88.81
2023-05-08T03:50:41.729Z,95.38
2023-05-08T03:53:09.735Z,93.63
2023-05-08T03:55:38.714Z,96.26
2023-05-08T03:58:07.033Z,98.85
2023-05-08T04:01:02.720Z,97.45
2023-05-08T04:03:41.284Z,98.12
2023-05-08T04:06:49.317Z,95.44
2023-05-08T04:09:40.475Z,92.54
2023-05-08T04:12:15.568Z,96.08
2023-05-08T04:15:00.726Z,94.08
2023-05-08T04:17:58.361Z,95.75
2023-05-08T04:21:07.185Z,96.04
2023-05-08T04:23:34.989Z,97.36
2023-05-08T04:26:05.428Z,95.93
2023-05-08T04:28:35.414Z,96.99
2023-05-08T04:31:06.388Z,96.78
2023-05-08T04:33:39.716Z,97.68
2023-05-08T04:36:13.866Z,97.62
2023-05-08T04:38:54.868Z,97.95
2023-05-08T04:41:35.841Z,98.08
2023-05-08T04:44:05.085Z,96.57
2023-05-08T04:46:42.531Z,96.61
2023-05-08T04:49:12.387Z,97.36
2023-05-08T04:51:41.292Z,95.64
2023-05-08T04:54:43.827Z,94.67
2023-05-08T04:57:38.059Z,95.19
2023-05-08T05:00:08.811Z,96.38
2023-05-08T05:02:46.397Z,95.71
2023-05-08T05:05:21.837Z,94.06
2023-05-08T05:07:51.204Z,94.31
2023-05-08T05:10:21.074Z,92.25
2023-05-08T05:13:00.267Z,89.81
2023-05-08T05:15:31.432Z,88.92
2023-05-08T05:18:01.256Z,87.96
2023-05-08T05:20:35.884Z,91.31
2023-05-08T05:23:15.271Z,88.55
2023-05-08T05:25:50.027Z,87.67
2023-05-08T05:28:32.618Z,90.74
2023-05-08T05:31:04.044Z,90.90
2023-05-08T05:33:58.030Z,89.26
2023-05-08T05:36:26.384Z,91.85
2023-05-08T05:38:54.659Z,91.49
2023-05-08T05:41:25.921Z,89.50
2023-05-08T05:43:54.202Z,88.49
2023-05-08T05:49:39.236Z,84.93
2023-05-08T05:52:07.856Z,82.84
2023-05-08T05:54:39.485Z,81.57
2023-05-08T05:57:07.962Z,80.65
2023-05-08T05:59:36.214Z,79.10
2023-05-08T06:02:04.758Z,74.42
2023-05-08T06:04:33.046Z,77.31
2023-05-08T06:07:01.294Z,77.84
2023-05-08T06:09:29.138Z,79.23
2023-05-08T06:12:00.402Z,75.08
2023-05-08T06:14:29.259Z,74.31
2023-05-08T06:16:58.529Z,70.79
2023-05-08T06:19:31.071Z,70.85
2023-05-08T06:22:04.182Z,68.50
2023-05-08T06:24:54.170Z,62.88
2023-05-08T06:27:24.016Z,65.30
2023-05-08T06:32:42.888Z,66.26
2023-05-08T06:35:15.640Z,69.09
2023-05-08T06:37:47.818Z,63.94
2023-05-08T06:40:18.918Z,65.00
2023-05-08T06:42:47.486Z,63.81
2023-05-08T06:45:16.256Z,61.15
2023-05-08T06:47:57.120Z,61.41
2023-05-08T06:50:40.747Z,61.01
2023-05-08T06:53:10.351Z,60.03
2023-05-08T06:55:39.619Z,60.85
2023-05-08T06:58:08.811Z,59.55
2023-05-08T07:00:37.835Z,58.32
2023-05-08T07:03:06.128Z,59.70
2023-05-08T07:05:34.097Z,58.98
2023-05-08T07:08:01.899Z,59.00
2023-05-08T07:10:36.902Z,61.81
2023-05-08T07:13:08.969Z,59.62
2023-05-08T07:15:39.255Z,59.43
2023-05-08T07:18:07.115Z,59.24
2023-05-08T07:20:36.721Z,58.17
2023-05-08T07:23:08.009Z,54.53
2023-05-08T07:26:14.872Z,53.61
2023-05-08T07:28:42.952Z,56.44
2023-05-08T07:31:10.740Z,49.74
2023-05-08T07:33:38.536Z,51.01
2023-05-08T07:36:06.728Z,47.50
2023-05-08T07:41:41.112Z,49.59
2023-05-08T07:44:09.830Z,46.24
2023-05-08T07:46:38.274Z,48.32
2023-05-08T07:49:06.568Z,47.49
2023-05-08T07:51:34.377Z,47.54
2023-05-08T07:54:02.518Z,49.64
2023-05-08T07:56:30.357Z,50.87
2023-05-08T07:58:58.073Z,48.00
2023-05-08T08:01:26.179Z,44.52
2023-05-08T08:03:54.821Z,41.13
2023-05-08T08:06:22.632Z,39.99
2023-05-08T08:08:50.795Z,37.36
2023-05-08T08:11:18.995Z,43.28
2023-05-08T08:13:47.367Z,43.35
2023-05-08T08:16:19.712Z,41.19
2023-05-08T08:18:49.679Z,41.85
2023-05-08T08:21:22.204Z,40.38
2023-05-08T08:23:51.026Z,39.82
2023-05-08T08:26:18.829Z,44.17
2023-05-08T08:28:46.640Z,40.59
2023-05-08T08:31:16.744Z,43.50
2023-05-08T08:33:44.742Z,42.02
2023-05-08T08:36:15.867Z,41.50
2023-05-08T08:38:43.942Z,41.46
2023-05-08T08:41:13.928Z,39.00
2023-05-08T08:43:43.672Z,39.97
2023-05-08T08:46:15.918Z,42.24
2023-05-08T08:48:44.870Z,42.41
2023-05-08T08:51:19.249Z,41.10
2023-05-08T08:53:47.300Z,38.70
2023-05-08T08:56:16.790Z,36.41
2023-05-08T08:58:59.830Z,34.81
2023-05-08T09:01:31.456Z,35.75
2023-05-08T09:04:14.852Z,35.87
2023-05-08T09:06:43.981Z,35.61
2023-05-08T09:09:12.696Z,39.40
2023-05-08T09:11:41.760Z,36.59
2023-05-08T09:14:10.094Z,37.01
2023-05-08T09:16:38.047Z,39.96
2023-05-08T09:19:05.865Z,38.54
2023-05-08T09:21:34.078Z,36.49
2023-05-08T09:24:02.667Z,39.24
2023-05-08T09:26:32.769Z,38.51
2023-05-08T09:29:10.958Z,36.71
2023-05-08T09:31:42.516Z,32.57
2023-05-08T09:34:12.432Z,33.77
2023-05-08T09:36:42.270Z,33.59
2023-05-08T09:39:12.786Z,34.66
2023-05-08T09:41:45.949Z,32.43
2023-05-08T09:44:14.400Z,28.93
2023-05-08T09:46:42.355Z,33.62
2023-05-08T09:49:14.754Z,30.20
2023-05-08T09:51:54.496Z,30.79
2023-05-08T09:54:22.490Z,36.25
2023-05-08T09:56:56.345Z,36.51
2023-05-08T09:59:33.965Z,30.82
2023-05-08T10:02:10.965Z,33.55
2023-05-08T10:04:44.136Z,36.47
2023-05-08T10:07:13.449Z,30.60
2023-05-08T10:09:50.169Z,33.16
2023-05-08T10:12:25.928Z,31.16
2023-05-08T10:14:54.287Z,34.15
2023-05-08T10:17:48.705Z,33.40
2023-05-08T10:20:17.327Z,33.80
2023-05-08T10:22:49.155Z,32.50
2023-05-08T10:25:25.920Z,33.84
2023-05-08T10:28:15.117Z,32.94
2023-05-08T10:30:45.186Z,33.99
2023-05-08T10:33:13.063Z,34.05
2023-05-08T10:35:40.828Z,35.96
2023-05-08T10:38:10.211Z,34.50
2023-05-08T10:40:38.154Z,30.86
2023-05-08T10:43:07.478Z,32.73
2023-05-08T10:45:41.916Z,33.02
2023-05-08T10:48:25.061Z,34.02
2023-05-08T10:51:07.068Z,32.55
2023-05-08T10:53:45.127Z,32.96
2023-05-08T10:56:19.833Z,32.58
2023-05-08T10:58:50.472Z,29.75
2023-05-08T11:01:19.804Z,32.28
2023-05-08T11:03:51.110Z,32.18
2023-05-08T11:06:42.120Z,30.63
2023-05-08T11:09:10.845Z,31.50
2023-05-08T11:11:39.528Z,29.11
2023-05-08T11:14:07.265Z,29.11
2023-05-08T11:16:53.984Z,30.57
2023-05-08T11:19:25.507Z,30.43
2023-05-08T11:22:12.907Z,32.82
2023-05-08T11:24:51.384Z,32.00
2023-05-08T11:27:19.302Z,33.10
2023-05-08T11:30:11.931Z,30.79
2023-05-08T11:33:00.329Z,31.07
2023-05-08T11:35:46.467Z,32.46
2023-05-08T11:38:41.214Z,32.44
2023-05-08T11:41:22.401Z,27.88
2023-05-08T11:44:06.137Z,28.20
2023-05-08T11:46:45.357Z,29.17
2023-05-08T11:49:18.394Z,24.61
2023-05-08T11:51:50.837Z,28.65
2023-05-08T11:54:19.281Z,25.68
2023-05-08T11:56:50.897Z,25.87
2023-05-08T11:59:44.229Z,27.63
2023-05-08T12:02:17.270Z,32.40
2023-05-08T12:04:46.295Z,26.32
2023-05-08T12:07:23.059Z,28.18
2023-05-08T12:09:51.800Z,28.63
2023-05-08T12:12:19.546Z,28.91
2023-05-08T12:14:53.823Z,29.84
2023-05-08T12:17:22.440Z,30.77
2023-05-08T12:20:03.137Z,29.18
2023-05-08T12:22:43.691Z,30.48
2023-05-08T12:25:31.982Z,32.68
2023-05-08T12:30:58.456Z,32.00
2023-05-08T12:33:29.797Z,31.82
2023-05-08T12:36:01.725Z,33.07
2023-05-08T12:38:30.299Z,26.57
2023-05-08T12:41:04.540Z,27.62
2023-05-08T12:43:38.934Z,28.50
2023-05-08T12:46:06.829Z,28.34
2023-05-08T12:48:35.130Z,29.15
2023-05-08T12:51:04.195Z,26.87
2023-05-08T12:53:32.709Z,31.21
2023-05-08T12:56:03.288Z,33.84
2023-05-08T12:58:33.667Z,33.06
2023-05-08T13:01:12.441Z,29.79
2023-05-08T13:03:56.074Z,29.22
2023-05-08T13:07:20.434Z,30.74
2023-05-08T13:09:57.430Z,31.86
2023-05-08T13:12:28.511Z,32.90
2023-05-08T13:15:03.430Z,33.68
2023-05-08T13:17:46.617Z,32.36
2023-05-08T13:21:00.044Z,30.51
2023-05-08T13:23:28.278Z,32.45
2023-05-08T13:26:04.711Z,27.65
2023-05-08T13:28:34.176Z,30.46
2023-05-08T13:31:01.908Z,27.83
2023-05-08T13:33:29.700Z,26.75
2023-05-08T13:36:06.057Z,26.58
2023-05-08T13:38:34.971Z,27.68
2023-05-08T13:41:03.153Z,29.74
2023-05-08T13:43:30.860Z,28.98
2023-05-08T13:45:58.640Z,27.41
2023-05-08T13:48:27.316Z,25.75
2023-05-08T13:50:56.607Z,26.43
2023-05-08T13:53:24.342Z,27.91
2023-05-08T13:55:52.908Z,28.75
2023-05-08T13:58:23.372Z,28.64
2023-05-08T14:00:51.272Z,25.53
2023-05-08T14:03:19.650Z,27.49
2023-05-08T14:05:47.445Z,28.57
2023-05-08T14:08:23.961Z,29.49
2023-05-08T14:10:58.141Z,30.05
2023-05-08T14:13:26.023Z,32.23
2023-05-08T14:15:54.206Z,28.84
2023-05-08T14:18:26.124Z,29.00
2023-05-08T14:20:57.385Z,26.97
2023-05-08T14:23:26.009Z,26.19
2023-05-08T14:25:58.571Z,26.47
2023-05-08T14:28:27.215Z,26.86
2023-05-08T14:30:55.009Z,27.92
2023-05-08T14:33:23.361Z,21.92
2023-05-08T14:36:00.351Z,24.10
2023-05-08T14:38:28.181Z,24.08
2023-05-08T14:40:56.955Z,26.40
2023-05-08T14:43:25.317Z,27.24
2023-05-08T14:45:59.366Z,29.23
2023-05-08T14:48:27.871Z,25.76
2023-05-08T14:50:58.258Z,25.03
2023-05-08T14:53:26.287Z,26.09
2023-05-08T14:56:04.163Z,24.30
2023-05-08T14:58:32.082Z,23.95
2023-05-08T15:01:00.831Z,23.07
2023-05-08T15:03:29.227Z,24.14
2023-05-08T15:05:58.435Z,24.77
2023-05-08T15:08:26.659Z,25.71
2023-05-08T15:10:55.802Z,26.09
2023-05-08T15:13:23.594Z,23.95
2023-05-08T15:15:52.022Z,24.61
2023-05-08T15:18:28.663Z,22.73
2023-05-08T15:20:58.232Z,24.25
2023-05-08T15:23:26.657Z,23.85
2023-05-08T15:25:55.696Z,24.97
2023-05-08T15:28:41.570Z,22.18
2023-05-08T15:31:11.512Z,21.10
2023-05-08T15:33:45.060Z,21.96
2023-05-08T15:36:14.114Z,21.14
2023-05-08T15:38:42.679Z,23.29
2023-05-08T15:41:15.094Z,24.08
2023-05-08T15:43:45.570Z,22.74
2023-05-08T15:46:15.813Z,23.04
2023-05-08T15:48:44.045Z,23.31
2023-05-08T15:51:12.045Z,24.84
2023-05-08T15:53:39.701Z,24.30
2023-05-08T15:56:08.055Z,23.39
2023-05-08T15:58:39.160Z,21.93
2023-05-08T16:01:07.337Z,24.21
2023-05-08T16:03:35.848Z,22.50
2023-05-08T16:06:03.739Z,24.64
2023-05-08T16:08:31.830Z,23.09
2023-05-08T16:11:00.064Z,24.81
2023-05-08T16:13:33.341Z,26.69
2023-05-08T16:16:05.468Z,25.89
2023-05-08T16:18:36.421Z,26.67
2023-05-08T16:21:10.941Z,27.78
2023-05-08T16:23:40.572Z,26.48
2023-05-08T16:26:08.713Z,26.12
2023-05-08T16:28:36.391Z,27.06
2023-05-08T16:31:05.237Z,28.36
2023-05-08T16:33:33.505Z,29.60
2023-05-08T16:36:01.359Z,28.51
2023-05-08T16:38:29.194Z,27.25
2023-05-08T16:41:04.256Z,29.63
2023-05-08T16:43:32.157Z,31.01
2023-05-08T16:46:00.397Z,31.98
2023-05-08T16:48:29.241Z,31.62
2023-05-08T16:50:57.378Z,31.75
2023-05-08T16:53:27.612Z,30.61
2023-05-08T16:55:55.605Z,29.70
2023-05-08T16:58:23.426Z,30.17
2023-05-08T17:00:51.544Z,32.53
2023-05-08T17:03:19.456Z,33.67
2023-05-08T17:05:48.454Z,36.10
2023-05-08T17:08:16.706Z,36.45
2023-05-08T17:10:44.551Z,37.18
2023-05-08T17:13:12.978Z,37.36
2023-05-08T17:15:41.411Z,37.84
2023-05-08T17:18:09.193Z,37.65
2023-05-08T17:20:41.140Z,38.42
2023-05-08T17:23:27.741Z,38.39
2023-05-08T17:25:56.740Z,38.46
2023-05-08T17:28:24.568Z,39.87
2023-05-08T17:30:57.698Z,39.01
2023-05-08T17:33:28.602Z,38.48
2023-05-08T17:35:56.487Z,38.17
2023-05-08T17:38:24.393Z,39.58
2023-05-08T17:40:52.583Z,39.03
2023-05-08T17:43:20.959Z,40.05
2023-05-08T17:45:50.830Z,40.31
2023-05-08T17:48:19.011Z,41.17
2023-05-08T17:50:47.180Z,41.22
2023-05-08T17:53:16.254Z,41.60
2023-05-08T17:55:44.641Z,41.45
2023-05-08T17:58:13.263Z,41.89
2023-05-08T18:00:41.231Z,41.17
2023-05-08T18:03:09.901Z,42.17
2023-05-08T18:05:39.099Z,41.14
2023-05-08T18:08:06.920Z,41.73
2023-05-08T18:10:35.612Z,41.06
2023-05-08T18:13:04.978Z,41.63
2023-05-08T18:15:36.357Z,40.35
2023-05-08T18:18:04.610Z,41.44
2023-05-08T18:20:32.556Z,41.99
2023-05-08T18:23:00.263Z,40.19
2023-05-08T18:25:28.399Z,39.92
2023-05-08T18:28:03.343Z,40.37
2023-05-08T18:30:32.224Z,41.35
2023-05-08T18:33:02.759Z,40.83
2023-05-08T18:35:32.250Z,40.76
2023-05-08T18:38:01.124Z,41.35
2023-05-08T18:40:29.610Z,41.40
2023-05-08T18:42:58.310Z,41.44
2023-05-08T18:45:27.550Z,42.76
2023-05-08T18:47:57.881Z,44.49
2023-05-08T18:50:26.095Z,42.48
2023-05-08T18:52:53.975Z,42.27
2023-05-08T18:55:21.969Z,41.17
2023-05-08T19:00:39.327Z,41.85
2023-05-08T19:03:07.623Z,42.81
2023-05-08T19:05:35.507Z,43.01
2023-05-08T19:10:50.991Z,41.81
2023-05-08T19:13:26.462Z,43.07
2023-05-08T19:16:02.501Z,43.15
2023-05-08T19:18:31.531Z,43.01
2023-05-08T19:21:00.411Z,43.56
2023-05-08T19:23:28.172Z,43.93
2023-05-08T19:25:55.861Z,43.14
2023-05-08T19:28:24.000Z,45.01
2023-05-08T19:30:51.702Z,44.38
2023-05-08T19:33:21.024Z,44.40
2023-05-08T19:35:49.182Z,43.51
2023-05-08T19:38:17.536Z,44.23
2023-05-08T19:40:57.475Z,43.72
2023-05-08T19:43:30.590Z,44.20
2023-05-08T19:46:01.678Z,44.70
2023-05-08T19:48:29.760Z,44.45
2023-05-08T19:50:57.550Z,43.61
2023-05-08T19:53:30.809Z,44.88
2023-05-08T19:55:58.526Z,44.74
2023-05-08T19:58:26.388Z,44.28
2023-05-08T20:00:54.408Z,46.20
2023-05-08T20:03:23.205Z,45.50
2023-05-08T20:05:51.448Z,45.44
2023-05-08T20:08:19.232Z,45.98
2023-05-08T20:10:49.416Z,45.88
2023-05-08T20:13:17.634Z,47.37
2023-05-08T20:15:45.632Z,46.88
2023-05-08T20:18:13.897Z,46.26
2023-05-08T20:20:41.625Z,47.09
2023-05-08T20:23:09.400Z,48.48
2023-05-08T20:25:46.675Z,48.27
2023-05-08T20:28:16.417Z,47.80
2023-05-08T20:30:44.584Z,47.27
2023-05-08T20:33:13.638Z,47.99
2023-05-08T20:35:45.951Z,48.46
2023-05-08T20:38:16.678Z,48.78
2023-05-08T20:41:05.196Z,49.27
2023-05-08T20:43:35.861Z,47.09
2023-05-08T20:46:16.470Z,48.44
2023-05-08T20:48:45.731Z,49.35
2023-05-08T20:51:17.727Z,48.22
2023-05-08T20:53:45.980Z,48.30
2023-05-08T20:56:19.155Z,48.38
2023-05-08T20:58:49.900Z,48.90
2023-05-08T21:01:20.715Z,49.10
2023-05-08T21:04:05.734Z,48.28
2023-05-08T21:06:36.000Z,47.87
2023-05-08T21:09:07.060Z,47.98
2023-05-08T21:11:35.485Z,46.89
2023-05-08T21:14:03.331Z,48.31
2023-05-08T21:16:31.599Z,47.24
2023-05-08T21:19:14.417Z,46.58
2023-05-08T21:21:49.753Z,49.74
2023-05-08T21:24:46.278Z,47.73
2023-05-08T21:27:14.942Z,48.51
2023-05-08T21:29:42.604Z,49.81
2023-05-08T21:32:10.571Z,49.62
2023-05-08T21:34:38.793Z,49.50
2023-05-08T21:37:06.532Z,49.13
2023-05-08T21:39:34.244Z,49.67
2023-05-08T21:42:03.702Z,47.87
2023-05-08T21:44:36.243Z,47.26
2023-05-08T21:47:04.476Z,49.79
2023-05-08T21:49:32.126Z,51.14
2023-05-08T21:51:59.814Z,51.05
2023-05-08T21:54:27.944Z,51.38
2023-05-08T21:56:55.688Z,51.41
2023-05-08T21:59:29.449Z,51.36
2023-05-08T22:01:57.298Z,50.89
2023-05-08T22:04:31.100Z,52.21
2023-05-08T22:06:58.823Z,53.04
2023-05-08T22:09:26.605Z,51.87
2023-05-08T22:11:54.825Z,52.79
2023-05-08T22:14:22.524Z,52.49
2023-05-08T22:16:50.351Z,52.75
2023-05-08T22:19:22.965Z,52.50
2023-05-08T22:21:50.735Z,52.80
2023-05-08T22:24:30.023Z,53.98
2023-05-08T22:26:57.816Z,53.55
2023-05-08T22:29:25.501Z,53.27
2023-05-08T22:31:55.946Z,53.20
2023-05-08T22:34:27.431Z,53.32
2023-05-08T22:36:58.111Z,53.66
2023-05-08T22:39:26.500Z,52.08
2023-05-08T22:41:54.555Z,54.40
2023-05-08T22:44:25.604Z,51.85
2023-05-08T22:46:53.700Z,53.72
2023-05-08T22:49:27.470Z,54.15
2023-05-08T22:51:55.679Z,53.69
2023-05-08T22:54:23.464Z,54.15
2023-05-08T22:56:51.625Z,53.33
2023-05-08T22:59:19.295Z,53.78
2023-05-08T23:01:47.530Z,53.54
2023-05-08T23:04:35.710Z,53.54
2023-05-08T23:07:23.469Z,53.70
2023-05-08T23:09:51.593Z,53.72
2023-05-08T23:12:19.945Z,53.31
2023-05-08T23:14:47.768Z,53.11
2023-05-08T23:17:15.865Z,50.97
2023-05-08T23:19:43.656Z,50.80
2023-05-08T23:22:12.158Z,52.79
2023-05-08T23:25:00.269Z,53.86
2023-05-08T23:27:28.012Z,54.47
2023-05-08T23:29:56.468Z,55.10
2023-05-08T23:32:24.523Z,55.33
2023-05-08T23:34:52.384Z,55.50
2023-05-08T23:37:20.112Z,58.73
2023-05-08T23:39:48.276Z,58.08
2023-05-08T23:42:16.185Z,59.39
2023-05-08T23:44:43.949Z,60.42
2023-05-08T23:47:12.077Z,62.39
2023-05-08T23:49:39.872Z,60.46
2023-05-08T23:52:08.699Z,63.37
2023-05-08T23:54:36.791Z,64.30
2023-05-08T23:57:04.622Z,65.95
2023-05-08T23:59:32.393Z,66.60
